Time;durP1;ratioP1;P1;durP2;ratioP2;P2;SDS_P1;SDS_P2;PMS_P1;PMS_P2;Temp;Humidity;BMP_temperature;BMP_pressure;BME280_temperature;BME280_humidity;BME280_pressure;Samples;Min_cycle;Max_cycle;Signal;HPM_P1;HPM_P2
2023/09/15 00:00:12;;;;;;;;;;;16.80;99.90;;;;;;5017049;28;19909;-74
2023/09/15 00:02:37;;;;;;;;;;;16.80;99.90;;;;;;5018357;28;20289;-74
2023/09/15 00:05:04;;;;;;;;;;;16.70;99.90;;;;;;5016814;28;19905;-74
2023/09/15 00:07:31;;;;;;;;;;;16.70;99.90;;;;;;5018280;28;20392;-74
2023/09/15 00:09:58;;;;;;;;;;;16.70;99.90;;;;;;5018154;28;19975;-74
2023/09/15 00:12:24;;;;;;;;;;;16.70;99.90;;;;;;5018158;28;19995;-74
2023/09/15 00:14:50;;;;;;;;;;;16.60;99.90;;;;;;5017270;28;19950;-74
2023/09/15 00:17:15;;;;;;;;;;;16.60;99.90;;;;;;5018045;28;19910;-73
2023/09/15 00:19:41;;;;;;;;;;;16.60;99.90;;;;;;5016452;28;19909;-73
2023/09/15 00:22:07;;;;;;;;;;;16.50;99.90;;;;;;5018081;28;19905;-73
2023/09/15 00:24:35;;;;;;;;;;;16.50;99.90;;;;;;5017865;28;19956;-74
2023/09/15 00:27:01;;;;;;;;;;;16.40;99.90;;;;;;5016412;28;19909;-73
2023/09/15 00:29:26;;;;;;;;;;;16.40;99.90;;;;;;5017672;28;19914;-74
2023/09/15 00:31:52;;;;;;;;;;;16.40;99.90;;;;;;5017727;28;19906;-73
2023/09/15 00:34:18;;;;;;;;;;;16.30;99.90;;;;;;5017728;28;19905;-74
2023/09/15 00:36:45;;;;;;;;;;;16.30;99.90;;;;;;5024908;28;19924;-73
2023/09/15 00:39:11;;;;;;;;;;;16.30;99.90;;;;;;5023169;28;20000;-73
2023/09/15 00:41:36;;;;;;;;;;;16.30;99.90;;;;;;5017380;28;19909;-73
2023/09/15 00:44:02;;;;;;;;;;;16.20;99.90;;;;;;5027123;28;19948;-73
2023/09/15 00:46:30;;;;;;;;;;;16.20;99.90;;;;;;5017615;28;19913;-73
2023/09/15 00:48:56;;;;;;;;;;;16.20;99.90;;;;;;5017557;28;19909;-73
2023/09/15 00:51:23;;;;;;;;;;;16.20;99.90;;;;;;5016097;28;20381;-73
2023/09/15 00:53:49;;;;;;;;;;;16.20;99.90;;;;;;5017537;28;19910;-73
2023/09/15 00:56:14;;;;;;;;;;;16.20;99.90;;;;;;5017050;28;19913;-73
2023/09/15 00:58:40;;;;;;;;;;;16.10;99.90;;;;;;5017376;28;19906;-73
2023/09/15 01:01:06;;;;;;;;;;;16.10;99.90;;;;;;5017484;28;19913;-73
2023/09/15 01:03:34;;;;;;;;;;;16.10;99.90;;;;;;5017338;28;19970;-73
2023/09/15 01:05:59;;;;;;;;;;;16.10;99.90;;;;;;5017203;28;19905;-73
2023/09/15 01:08:25;;;;;;;;;;;16.10;99.90;;;;;;5017083;28;19909;-73
2023/09/15 01:10:50;;;;;;;;;;;16.10;99.90;;;;;;5017318;28;19913;-73
2023/09/15 01:13:16;;;;;;;;;;;16.00;99.90;;;;;;5016797;28;19956;-74
2023/09/15 01:15:41;;;;;;;;;;;15.90;99.90;;;;;;5015749;28;19913;-73
2023/09/15 01:18:30;;;;;;;;;;;15.90;99.90;;;;;;5016881;28;19909;-73
2023/09/15 01:21:14;;;;;;;;;;;15.90;99.90;;;;;;5014971;28;20366;-73
2023/09/15 01:23:46;;;;;;;;;;;15.90;99.90;;;;;;5016939;28;19905;-73
2023/09/15 01:26:31;;;;;;;;;;;15.90;99.90;;;;;;5015366;28;20205;-73
2023/09/15 01:29:15;;;;;;;;;;;15.80;99.90;;;;;;5015352;28;20016;-74
2023/09/15 01:31:42;;;;;;;;;;;15.80;99.90;;;;;;5016717;28;19906;-73
2023/09/15 01:34:09;;;;;;;;;;;15.80;99.90;;;;;;5016803;28;20359;-74
2023/09/15 01:36:34;;;;;;;;;;;15.80;99.90;;;;;;5021237;28;19968;-74
2023/09/15 01:39:00;;;;;;;;;;;15.70;99.90;;;;;;5023744;28;19924;-73
2023/09/15 01:41:25;;;;;;;;;;;15.80;99.90;;;;;;5016779;28;19909;-73
2023/09/15 01:43:53;;;;;;;;;;;15.70;99.90;;;;;;5025713;28;19909;-74
2023/09/15 01:46:23;;;;;;;;;;;15.70;99.90;;;;;;5016611;28;20281;-73
2023/09/15 01:48:52;;;;;;;;;;;15.70;99.90;;;;;;5016484;28;19909;-73
2023/09/15 01:51:18;;;;;;;;;;;15.70;99.90;;;;;;5023965;28;19905;-73
2023/09/15 01:53:43;;;;;;;;;;;15.70;99.90;;;;;;5036274;28;21212;-73
2023/09/15 01:56:09;;;;;;;;;;;15.70;99.90;;;;;;5035892;28;20393;-73
2023/09/15 01:58:34;;;;;;;;;;;15.60;99.90;;;;;;5036151;28;19948;-73
2023/09/15 02:01:00;;;;;;;;;;;15.60;99.90;;;;;;5036167;28;19960;-73
2023/09/15 02:03:26;;;;;;;;;;;15.60;99.90;;;;;;5036011;28;19909;-73
2023/09/15 02:05:51;;;;;;;;;;;15.60;99.90;;;;;;5036152;28;19909;-73
2023/09/15 02:08:17;;;;;;;;;;;15.60;99.90;;;;;;5036239;28;20384;-73
2023/09/15 02:10:42;;;;;;;;;;;15.60;99.90;;;;;;5036077;28;19936;-73
2023/09/15 02:13:08;;;;;;;;;;;15.60;99.90;;;;;;5034667;28;19905;-73
2023/09/15 02:15:33;;;;;;;;;;;15.60;99.90;;;;;;5035230;28;20474;-73
2023/09/15 02:17:59;;;;;;;;;;;15.50;99.90;;;;;;5034919;28;20369;-74
2023/09/15 02:20:25;;;;;;;;;;;15.60;99.90;;;;;;5036015;28;20430;-73
2023/09/15 02:22:50;;;;;;;;;;;15.50;99.90;;;;;;5036104;28;20445;-73
2023/09/15 02:25:16;;;;;;;;;;;15.60;99.90;;;;;;5034619;28;19931;-73
2023/09/15 02:27:42;;;;;;;;;;;15.60;99.90;;;;;;5022623;28;19962;-73
2023/09/15 02:30:08;;;;;;;;;;;15.60;99.90;;;;;;5016042;28;19906;-73
2023/09/15 02:32:34;;;;;;;;;;;15.60;99.90;;;;;;5016065;28;20253;-73
2023/09/15 02:34:59;;;;;;;;;;;15.50;99.90;;;;;;5015952;28;19920;-73
2023/09/15 02:37:25;;;;;;;;;;;15.60;99.90;;;;;;5029069;28;20293;-73
2023/09/15 02:39:50;;;;;;;;;;;15.50;99.90;;;;;;5019753;28;19915;-73
2023/09/15 02:42:16;;;;;;;;;;;15.50;99.90;;;;;;5019764;28;19946;-73
2023/09/15 02:44:42;;;;;;;;;;;15.50;99.90;;;;;;5028284;28;19913;-73
2023/09/15 02:47:07;;;;;;;;;;;15.50;99.90;;;;;;5019714;28;20412;-73
2023/09/15 02:49:33;;;;;;;;;;;15.50;99.90;;;;;;5019606;28;19917;-73
2023/09/15 02:52:01;;;;;;;;;;;15.50;99.90;;;;;;5018365;28;19905;-74
2023/09/15 02:54:26;;;;;;;;;;;15.50;99.90;;;;;;5019552;28;20515;-73
2023/09/15 02:56:52;;;;;;;;;;;15.40;99.90;;;;;;5023841;28;19983;-73
2023/09/15 02:59:17;;;;;;;;;;;15.40;99.90;;;;;;5019797;28;20000;-73
2023/09/15 03:01:43;;;;;;;;;;;15.40;99.90;;;;;;5019340;28;19906;-73
2023/09/15 03:04:09;;;;;;;;;;;15.40;99.90;;;;;;5018016;28;19906;-74
2023/09/15 03:06:34;;;;;;;;;;;15.40;99.90;;;;;;5018841;28;19905;-73
2023/09/15 03:09:00;;;;;;;;;;;15.40;99.90;;;;;;5017435;28;19917;-73
2023/09/15 03:11:25;;;;;;;;;;;15.40;99.90;;;;;;5019165;28;20360;-74
2023/09/15 03:13:51;;;;;;;;;;;15.30;99.90;;;;;;5017644;28;19917;-74
2023/09/15 03:16:16;;;;;;;;;;;15.30;99.90;;;;;;5017965;28;19933;-73
2023/09/15 03:18:46;;;;;;;;;;;15.30;99.90;;;;;;5025482;28;20302;-74
2023/09/15 03:21:12;;;;;;;;;;;15.30;99.90;;;;;;5037464;28;19912;-74
2023/09/15 03:23:37;;;;;;;;;;;15.30;99.90;;;;;;5038886;28;19909;-74
2023/09/15 03:26:03;;;;;;;;;;;15.30;99.90;;;;;;5038731;28;19915;-73
2023/09/15 03:28:33;;;;;;;;;;;15.20;99.90;;;;;;5038543;28;19909;-74
2023/09/15 03:30:59;;;;;;;;;;;15.20;99.90;;;;;;5037601;28;19940;-74
2023/09/15 03:33:25;;;;;;;;;;;15.20;99.90;;;;;;5037419;28;19913;-74
2023/09/15 03:35:51;;;;;;;;;;;15.20;99.90;;;;;;5038601;28;19921;-73
2023/09/15 03:38:17;;;;;;;;;;;15.20;99.90;;;;;;5031986;28;19909;-74
2023/09/15 03:40:42;;;;;;;;;;;15.20;99.90;;;;;;5018912;28;19973;-74
2023/09/15 03:43:08;;;;;;;;;;;15.20;99.90;;;;;;5021799;28;19909;-73
2023/09/15 03:45:34;;;;;;;;;;;15.20;99.90;;;;;;5025142;28;19913;-73
2023/09/15 03:47:59;;;;;;;;;;;15.20;99.90;;;;;;5018581;28;19917;-74
2023/09/15 03:50:25;;;;;;;;;;;15.10;99.90;;;;;;5017444;28;19906;-74
2023/09/15 03:52:51;;;;;;;;;;;15.10;99.90;;;;;;5018491;28;19905;-73
2023/09/15 03:55:17;;;;;;;;;;;15.10;99.90;;;;;;5017148;28;19905;-73
2023/09/15 03:57:42;;;;;;;;;;;15.10;99.90;;;;;;5016853;28;19936;-74
2023/09/15 04:00:15;;;;;;;;;;;15.10;99.90;;;;;;5018499;28;19905;-73
2023/09/15 04:02:41;;;;;;;;;;;15.10;99.90;;;;;;5018576;28;20438;-74
2023/09/15 04:05:07;;;;;;;;;;;15.10;99.90;;;;;;5018326;28;20358;-74
2023/09/15 04:07:32;;;;;;;;;;;15.20;99.90;;;;;;5018243;28;19920;-74
2023/09/15 04:09:58;;;;;;;;;;;15.30;99.90;;;;;;5018313;28;19911;-74
2023/09/15 04:12:24;;;;;;;;;;;15.30;99.90;;;;;;5018111;28;20306;-74
2023/09/15 04:14:49;;;;;;;;;;;15.30;99.90;;;;;;5017999;28;20483;-74
2023/09/15 04:17:15;;;;;;;;;;;15.40;99.90;;;;;;5018025;28;19909;-74
2023/09/15 04:19:40;;;;;;;;;;;15.40;99.90;;;;;;5017902;28;19905;-74
2023/09/15 04:22:06;;;;;;;;;;;15.40;99.90;;;;;;5016661;28;19905;-74
2023/09/15 04:24:31;;;;;;;;;;;15.40;99.90;;;;;;5017895;28;19909;-73
2023/09/15 04:26:57;;;;;;;;;;;15.40;99.90;;;;;;5017707;28;19906;-74
2023/09/15 04:29:22;;;;;;;;;;;15.40;99.90;;;;;;5017765;28;19909;-74
2023/09/15 04:31:48;;;;;;;;;;;15.40;99.90;;;;;;5016487;28;19924;-73
2023/09/15 04:34:14;;;;;;;;;;;15.40;99.90;;;;;;5017826;28;19909;-73
2023/09/15 04:36:40;;;;;;;;;;;15.30;99.90;;;;;;5023120;28;19917;-74
2023/09/15 04:39:07;;;;;;;;;;;15.30;99.90;;;;;;5023969;28;19909;-74
2023/09/15 04:41:32;;;;;;;;;;;15.30;99.90;;;;;;5016074;28;19910;-73
2023/09/15 04:43:58;;;;;;;;;;;15.30;99.90;;;;;;5026076;28;19916;-74
2023/09/15 04:46:24;;;;;;;;;;;15.20;99.90;;;;;;5017740;28;19909;-73
2023/09/15 04:48:50;;;;;;;;;;;15.30;99.90;;;;;;5017453;28;20465;-74
2023/09/15 04:51:16;;;;;;;;;;;15.30;99.90;;;;;;5016042;28;19952;-73
2023/09/15 04:53:41;;;;;;;;;;;15.20;99.90;;;;;;5017413;28;20463;-73
2023/09/15 04:56:07;;;;;;;;;;;15.20;99.90;;;;;;5017171;28;19913;-73
2023/09/15 04:58:33;;;;;;;;;;;15.20;99.90;;;;;;5017487;28;20455;-74
2023/09/15 05:01:03;;;;;;;;;;;15.20;99.90;;;;;;5016992;28;19916;-74
2023/09/15 05:03:29;;;;;;;;;;;15.20;99.90;;;;;;5017327;28;19910;-74
2023/09/15 05:05:55;;;;;;;;;;;15.10;99.90;;;;;;5017418;28;19916;-73
2023/09/15 05:08:21;;;;;;;;;;;15.10;99.90;;;;;;5015743;28;19916;-74
2023/09/15 05:10:47;;;;;;;;;;;15.10;99.90;;;;;;5016905;28;19909;-74
2023/09/15 05:13:13;;;;;;;;;;;15.10;99.90;;;;;;5015733;28;19905;-74
2023/09/15 05:15:38;;;;;;;;;;;15.10;99.90;;;;;;5015715;28;19955;-74
2023/09/15 05:18:04;;;;;;;;;;;15.10;99.90;;;;;;5016942;28;19909;-74
2023/09/15 05:20:29;;;;;;;;;;;15.10;99.90;;;;;;5015573;28;19932;-75
2023/09/15 05:22:55;;;;;;;;;;;15.10;99.90;;;;;;5017060;28;19952;-73
2023/09/15 05:25:21;;;;;;;;;;;15.10;99.90;;;;;;5016878;28;19956;-73
2023/09/15 05:27:46;;;;;;;;;;;15.10;99.90;;;;;;5016551;28;19909;-74
2023/09/15 05:30:12;;;;;;;;;;;15.10;99.90;;;;;;5016715;28;19955;-74
2023/09/15 05:32:38;;;;;;;;;;;15.10;99.90;;;;;;5016811;28;19960;-74
2023/09/15 05:35:04;;;;;;;;;;;15.10;99.90;;;;;;5016586;28;19912;-74
2023/09/15 05:37:29;;;;;;;;;;;15.20;99.90;;;;;;5027901;28;20427;-74
2023/09/15 05:39:55;;;;;;;;;;;15.20;99.90;;;;;;5027678;28;19956;-75
2023/09/15 05:42:21;;;;;;;;;;;15.20;99.90;;;;;;5017891;28;20411;-75
2023/09/15 05:44:46;;;;;;;;;;;15.20;99.90;;;;;;5029876;28;20419;-75
2023/09/15 05:47:12;;;;;;;;;;;15.20;99.90;;;;;;5033429;28;19937;-74
2023/09/15 05:49:37;;;;;;;;;;;15.20;99.90;;;;;;5018565;28;19913;-75
2023/09/15 05:52:03;;;;;;;;;;;15.30;99.90;;;;;;5017116;28;19916;-74
2023/09/15 05:54:29;;;;;;;;;;;15.40;99.90;;;;;;5018305;28;19905;-74
2023/09/15 05:56:55;;;;;;;;;;;15.40;99.90;;;;;;5030105;28;19948;-74
2023/09/15 05:59:21;;;;;;;;;;;15.40;99.90;;;;;;5035020;28;19936;-75
2023/09/15 06:01:47;;;;;;;;;;;15.50;99.90;;;;;;5033412;28;20808;-74
2023/09/15 06:04:16;;;;;;;;;;;15.60;99.90;;;;;;5034321;28;19936;-74
2023/09/15 06:06:41;;;;;;;;;;;15.70;99.90;;;;;;5035258;28;19909;-75
2023/09/15 06:09:07;;;;;;;;;;;15.80;99.90;;;;;;5029664;28;19916;-75
2023/09/15 06:11:33;;;;;;;;;;;15.90;99.90;;;;;;5032717;28;20285;-75
2023/09/15 06:13:58;;;;;;;;;;;16.00;99.90;;;;;;5032851;28;19905;-75
2023/09/15 06:16:24;;;;;;;;;;;16.00;99.90;;;;;;5036426;28;19909;-74
2023/09/15 06:18:49;;;;;;;;;;;16.20;99.90;;;;;;5038774;28;19909;-75
2023/09/15 06:21:15;;;;;;;;;;;16.30;99.90;;;;;;5038582;28;19905;-75
2023/09/15 06:23:40;;;;;;;;;;;16.40;99.90;;;;;;5025361;28;19905;-75
2023/09/15 06:26:06;;;;;;;;;;;16.60;99.90;;;;;;5029947;28;19905;-75
2023/09/15 06:28:32;;;;;;;;;;;16.70;99.90;;;;;;5025012;28;19924;-75
2023/09/15 06:30:57;;;;;;;;;;;16.80;99.90;;;;;;5030201;28;19948;-74
2023/09/15 06:33:23;;;;;;;;;;;16.90;99.90;;;;;;5024869;28;19940;-74
2023/09/15 06:35:48;;;;;;;;;;;17.00;99.90;;;;;;5019440;28;20004;-75
2023/09/15 06:38:14;;;;;;;;;;;17.20;99.90;;;;;;5019630;28;19913;-74
2023/09/15 06:40:39;;;;;;;;;;;17.30;99.90;;;;;;5037805;28;19909;-74
2023/09/15 06:43:07;;;;;;;;;;;17.40;99.90;;;;;;5038478;28;19909;-74
2023/09/15 06:45:33;;;;;;;;;;;17.50;99.90;;;;;;5038616;28;19924;-74
2023/09/15 06:48:01;;;;;;;;;;;17.60;99.90;;;;;;5031203;28;20004;-74
2023/09/15 06:50:27;;;;;;;;;;;17.70;99.90;;;;;;5025278;28;20404;-75
2023/09/15 06:52:53;;;;;;;;;;;17.80;99.90;;;;;;5024638;28;20020;-74
2023/09/15 06:55:18;;;;;;;;;;;17.90;99.90;;;;;;5024277;28;19909;-74
2023/09/15 06:57:44;;;;;;;;;;;18.10;99.90;;;;;;5038416;28;19927;-74
2023/09/15 07:00:10;;;;;;;;;;;18.20;99.90;;;;;;5037822;28;19905;-74
2023/09/15 07:02:35;;;;;;;;;;;18.20;99.90;;;;;;5037616;28;19909;-74
2023/09/15 07:05:01;;;;;;;;;;;18.30;99.90;;;;;;5030032;28;19913;-75
2023/09/15 07:07:26;;;;;;;;;;;18.40;99.90;;;;;;5025760;28;19905;-75
2023/09/15 07:09:52;;;;;;;;;;;18.60;99.90;;;;;;5021134;28;19921;-74
2023/09/15 07:12:17;;;;;;;;;;;18.80;99.90;;;;;;5026063;28;19909;-75
2023/09/15 07:14:43;;;;;;;;;;;18.90;99.90;;;;;;5025085;28;21403;-74
2023/09/15 07:17:08;;;;;;;;;;;19.10;99.90;;;;;;5023014;28;20267;-75
2023/09/15 07:19:34;;;;;;;;;;;19.50;99.90;;;;;;5033278;28;20019;-74
2023/09/15 07:21:59;;;;;;;;;;;19.70;99.90;;;;;;5019644;28;19948;-75
2023/09/15 07:24:25;;;;;;;;;;;19.90;99.90;;;;;;5031886;28;19912;-74
2023/09/15 07:26:50;;;;;;;;;;;20.10;99.90;;;;;;5036742;28;19905;-75
2023/09/15 07:29:16;;;;;;;;;;;20.30;99.90;;;;;;5032619;28;19916;-75
2023/09/15 07:31:42;;;;;;;;;;;20.50;99.90;;;;;;5033322;28;19924;-75
2023/09/15 07:34:08;;;;;;;;;;;20.70;99.90;;;;;;5033240;28;20420;-76
2023/09/15 07:36:34;;;;;;;;;;;20.80;99.90;;;;;;5036898;28;19920;-74
2023/09/15 07:38:59;;;;;;;;;;;20.90;99.90;;;;;;5036146;28;19908;-74
2023/09/15 07:41:25;;;;;;;;;;;20.90;99.90;;;;;;5035745;28;19909;-74
2023/09/15 07:43:53;;;;;;;;;;;20.90;99.90;;;;;;5028921;28;19919;-74
2023/09/15 07:46:19;;;;;;;;;;;21.00;99.90;;;;;;5033002;28;19916;-74
2023/09/15 07:48:45;;;;;;;;;;;21.00;99.90;;;;;;5036658;28;19916;-73
2023/09/15 07:51:11;;;;;;;;;;;21.10;99.90;;;;;;5036197;28;19905;-75
2023/09/15 07:53:37;;;;;;;;;;;21.20;99.90;;;;;;5034779;28;19964;-73
2023/09/15 07:56:03;;;;;;;;;;;21.30;99.90;;;;;;5037134;28;20392;-74
2023/09/15 07:58:28;;;;;;;;;;;21.30;99.90;;;;;;5036886;28;19905;-74
2023/09/15 08:00:54;;;;;;;;;;;21.40;99.90;;;;;;5034449;28;19916;-75
2023/09/15 08:03:20;;;;;;;;;;;21.60;99.90;;;;;;5036593;28;19908;-75
2023/09/15 08:05:47;;;;;;;;;;;21.70;99.90;;;;;;5036587;28;20403;-75
2023/09/15 08:08:13;;;;;;;;;;;21.90;99.90;;;;;;5035547;28;19919;-75
2023/09/15 08:10:38;;;;;;;;;;;22.00;99.90;;;;;;5036599;28;19909;-75
2023/09/15 08:13:04;;;;;;;;;;;22.10;99.90;;;;;;5036193;28;19905;-74
2023/09/15 08:15:29;;;;;;;;;;;22.20;99.90;;;;;;5036192;28;20000;-75
2023/09/15 08:17:55;;;;;;;;;;;22.40;99.90;;;;;;5036634;28;19909;-75
2023/09/15 08:20:22;;;;;;;;;;;22.40;99.90;;;;;;5036429;28;19932;-74
2023/09/15 08:22:47;;;;;;;;;;;22.50;99.90;;;;;;5035793;28;19905;-74
2023/09/15 08:25:14;;;;;;;;;;;22.60;99.90;;;;;;5035021;28;19905;-76
2023/09/15 08:27:40;;;;;;;;;;;22.70;99.90;;;;;;5036411;28;19905;-74
2023/09/15 08:30:10;;;;;;;;;;;22.80;99.90;;;;;;5034109;28;20324;-73
2023/09/15 08:32:35;;;;;;;;;;;22.80;99.90;;;;;;5033333;28;19944;-75
2023/09/15 08:35:01;;;;;;;;;;;22.90;99.90;;;;;;5032832;28;20332;-76
2023/09/15 08:37:27;;;;;;;;;;;23.00;99.90;;;;;;5035532;28;19917;-75
2023/09/15 08:39:52;;;;;;;;;;;23.10;99.90;;;;;;5030560;28;19915;-75
2023/09/15 08:42:23;;;;;;;;;;;23.20;99.90;;;;;;5033840;28;19912;-75
2023/09/15 08:44:49;;;;;;;;;;;23.30;99.90;;;;;;5033074;28;19905;-74
2023/09/15 08:47:16;;;;;;;;;;;23.40;99.90;;;;;;5036095;28;19905;-75
2023/09/15 08:49:43;;;;;;;;;;;23.40;99.90;;;;;;5035666;28;20396;-76
2023/09/15 08:52:09;;;;;;;;;;;23.50;99.90;;;;;;5029012;28;19920;-75
2023/09/15 08:54:34;;;;;;;;;;;23.50;99.90;;;;;;5033792;28;19988;-76
2023/09/15 08:57:01;;;;;;;;;;;23.60;99.90;;;;;;5034345;28;19915;-75
2023/09/15 08:59:27;;;;;;;;;;;23.70;99.90;;;;;;5033235;28;19935;-74
2023/09/15 09:01:52;;;;;;;;;;;23.80;99.90;;;;;;5029292;28;20385;-78
2023/09/15 09:04:18;;;;;;;;;;;24.00;99.90;;;;;;5048943;28;19967;-76
2023/09/15 09:06:45;;;;;;;;;;;24.00;99.90;;;;;;5031181;28;20081;-76
2023/09/15 09:09:11;;;;;;;;;;;24.10;99.90;;;;;;5031645;28;20083;-78
2023/09/15 09:11:37;;;;;;;;;;;24.10;99.90;;;;;;5033075;28;19909;-78
2023/09/15 09:14:10;;;;;;;;;;;24.20;99.90;;;;;;5034757;28;19962;-74
2023/09/15 09:16:36;;;;;;;;;;;24.40;99.90;;;;;;5034654;28;20327;-76
2023/09/15 09:19:03;;;;;;;;;;;24.40;99.90;;;;;;5050788;28;19905;-75
2023/09/15 09:21:30;;;;;;;;;;;24.40;99.90;;;;;;5033686;28;20305;-75
2023/09/15 09:23:55;;;;;;;;;;;24.40;99.90;;;;;;5027176;28;19912;-77
2023/09/15 09:26:21;;;;;;;;;;;24.40;99.90;;;;;;5033602;28;19905;-76
2023/09/15 09:28:47;;;;;;;;;;;24.30;99.90;;;;;;5031224;28;20669;-74
2023/09/15 09:31:12;;;;;;;;;;;24.20;99.90;;;;;;5035231;28;19947;-77
2023/09/15 09:33:38;;;;;;;;;;;24.10;99.90;;;;;;5035010;28;19988;-75
2023/09/15 09:36:10;;;;;;;;;;;24.00;99.90;;;;;;5034670;28;19917;-76
2023/09/15 09:38:36;;;;;;;;;;;24.00;99.90;;;;;;5035055;28;19905;-76
2023/09/15 09:41:03;;;;;;;;;;;23.90;99.90;;;;;;5035019;28;19933;-76
2023/09/15 09:43:29;;;;;;;;;;;23.90;99.90;;;;;;5033986;28;19909;-75
2023/09/15 09:45:55;;;;;;;;;;;23.90;99.90;;;;;;5035352;28;19912;-76
2023/09/15 09:48:23;;;;;;;;;;;23.90;99.90;;;;;;5033774;28;19909;-75
2023/09/15 09:50:49;;;;;;;;;;;24.20;99.90;;;;;;5033613;28;19951;-74
2023/09/15 09:53:15;;;;;;;;;;;24.40;99.90;;;;;;5032191;28;19912;-77
2023/09/15 09:55:44;;;;;;;;;;;24.60;99.90;;;;;;5030646;28;20388;-76
2023/09/15 09:58:13;;;;;;;;;;;24.90;99.90;;;;;;5034886;28;19912;-76
2023/09/15 10:00:38;;;;;;;;;;;25.00;99.90;;;;;;5033712;28;19920;-75
2023/09/15 10:03:04;;;;;;;;;;;25.00;99.90;;;;;;5032883;28;19905;-76
2023/09/15 10:05:31;;;;;;;;;;;25.00;99.90;;;;;;5034600;28;19909;-77
2023/09/15 10:07:56;;;;;;;;;;;25.10;99.90;;;;;;5034736;28;20353;-76
2023/09/15 10:10:23;;;;;;;;;;;25.00;99.90;;;;;;5033536;28;19913;-76
2023/09/15 10:12:49;;;;;;;;;;;25.30;99.90;;;;;;5033869;28;19909;-77
2023/09/15 10:15:15;;;;;;;;;;;25.60;99.90;;;;;;5034633;28;19935;-78
2023/09/15 10:17:40;;;;;;;;;;;25.90;99.90;;;;;;5049927;28;20301;-75
2023/09/15 10:20:08;;;;;;;;;;;26.10;99.90;;;;;;5034640;28;19905;-73
2023/09/15 10:22:33;;;;;;;;;;;26.00;99.90;;;;;;5031401;28;19905;-73
2023/09/15 10:25:00;;;;;;;;;;;25.90;99.90;;;;;;5034807;28;19909;-77
2023/09/15 10:27:29;;;;;;;;;;;25.40;99.90;;;;;;5034611;28;20029;-76
2023/09/15 10:30:00;;;;;;;;;;;25.00;99.90;;;;;;5030102;28;20081;-76
2023/09/15 10:32:26;;;;;;;;;;;24.90;99.90;;;;;;5034156;28;19936;-75
2023/09/15 10:34:51;;;;;;;;;;;25.00;99.90;;;;;;5033341;28;19905;-77
2023/09/15 10:37:19;;;;;;;;;;;24.80;99.90;;;;;;5034588;28;20003;-76
2023/09/15 10:39:45;;;;;;;;;;;24.70;99.90;;;;;;5030865;28;19913;-77
2023/09/15 10:42:14;;;;;;;;;;;24.70;99.90;;;;;;5032399;28;19982;-76
2023/09/15 10:44:41;;;;;;;;;;;24.80;99.90;;;;;;5029636;28;19909;-76
2023/09/15 10:47:19;;;;;;;;;;;25.00;99.90;;;;;;5033493;28;19909;-76
2023/09/15 10:49:54;;;;;;;;;;;25.00;99.90;;;;;;5028684;28;19992;-75
2023/09/15 10:52:35;;;;;;;;;;;25.10;99.90;;;;;;5028647;28;20379;-77
2023/09/15 10:55:01;;;;;;;;;;;25.20;99.90;;;;;;5034116;28;19940;-76
2023/09/15 10:57:27;;;;;;;;;;;25.50;99.90;;;;;;5032814;28;19905;-76
2023/09/15 10:59:54;;;;;;;;;;;25.60;99.90;;;;;;5036210;28;19905;-77
2023/09/15 11:02:20;;;;;;;;;;;25.90;99.90;;;;;;5036222;28;20385;-76
2023/09/15 11:04:46;;;;;;;;;;;26.30;99.90;;;;;;5038492;28;19905;-75
2023/09/15 11:07:13;;;;;;;;;;;26.50;99.90;;;;;;5035565;28;19909;-76
2023/09/15 11:09:40;;;;;;;;;;;26.50;99.90;;;;;;5038112;28;20296;-76
2023/09/15 11:12:06;;;;;;;;;;;26.60;99.90;;;;;;5036133;28;19959;-76
2023/09/15 11:14:32;;;;;;;;;;;26.70;99.90;;;;;;5034502;28;19921;-76
2023/09/15 11:16:58;;;;;;;;;;;26.70;99.90;;;;;;5037966;28;19975;-76
2023/09/15 11:19:25;;;;;;;;;;;26.60;99.90;;;;;;5037717;28;19911;-78
2023/09/15 11:21:51;;;;;;;;;;;26.70;99.90;;;;;;5037216;28;20339;-76
2023/09/15 11:24:17;;;;;;;;;;;26.80;99.90;;;;;;5036232;28;19905;-76
2023/09/15 11:26:50;;;;;;;;;;;26.90;99.90;;;;;;5037367;28;19908;-76
2023/09/15 11:29:16;;;;;;;;;;;27.00;99.90;;;;;;5036171;28;19913;-77
2023/09/15 11:31:43;;;;;;;;;;;26.90;99.90;;;;;;5038061;28;19912;-77
2023/09/15 11:34:08;;;;;;;;;;;26.90;99.90;;;;;;5037213;28;19912;-76
2023/09/15 11:36:38;;;;;;;;;;;26.90;99.90;;;;;;5037735;28;20408;-76
2023/09/15 11:39:10;;;;;;;;;;;26.80;99.90;;;;;;5029579;28;19909;-76
2023/09/15 11:41:37;;;;;;;;;;;26.80;99.90;;;;;;5035375;28;19963;-77
2023/09/15 11:44:06;;;;;;;;;;;26.90;99.90;;;;;;5032017;28;19909;-75
2023/09/15 11:46:34;;;;;;;;;;;26.80;99.90;;;;;;5032596;28;20292;-76
2023/09/15 11:49:00;;;;;;;;;;;26.70;99.90;;;;;;5035388;28;20361;-77
2023/09/15 11:51:26;;;;;;;;;;;26.70;99.90;;;;;;5031936;28;19909;-78
2023/09/15 11:53:52;;;;;;;;;;;26.70;99.90;;;;;;5035980;28;19920;-77
2023/09/15 11:56:19;;;;;;;;;;;26.80;99.90;;;;;;5036825;28;20353;-77
2023/09/15 11:58:49;;;;;;;;;;;26.90;99.90;;;;;;5032073;28;20296;-77
2023/09/15 12:01:16;;;;;;;;;;;26.90;99.90;;;;;;5035306;28;19988;-77
2023/09/15 12:03:41;;;;;;;;;;;26.90;99.90;;;;;;5034436;28;19920;-76
2023/09/15 12:06:07;;;;;;;;;;;26.90;99.90;;;;;;5034328;28;20316;-76
2023/09/15 12:08:33;;;;;;;;;;;26.80;99.90;;;;;;5032082;28;19922;-77
2023/09/15 12:10:59;;;;;;;;;;;26.90;99.90;;;;;;5034640;28;20376;-77
2023/09/15 12:13:24;;;;;;;;;;;26.90;99.90;;;;;;5035651;28;19956;-76
2023/09/15 12:15:50;;;;;;;;;;;26.90;99.90;;;;;;5035690;28;19905;-77
2023/09/15 12:18:16;;;;;;;;;;;26.90;99.90;;;;;;5034681;28;19927;-77
2023/09/15 12:20:46;;;;;;;;;;;27.00;99.90;;;;;;5035408;28;19959;-77
2023/09/15 12:23:12;;;;;;;;;;;27.00;99.90;;;;;;5033685;28;19920;-76
2023/09/15 12:25:37;;;;;;;;;;;27.10;99.90;;;;;;5033172;28;20395;-78
2023/09/15 12:28:03;;;;;;;;;;;27.00;99.90;;;;;;5032403;28;19940;-79
2023/09/15 12:30:29;;;;;;;;;;;27.10;99.90;;;;;;5034988;28;19928;-77
2023/09/15 12:32:55;;;;;;;;;;;27.20;99.90;;;;;;5035503;28;19905;-76
2023/09/15 12:35:20;;;;;;;;;;;27.40;99.90;;;;;;5036359;28;19905;-74
2023/09/15 12:37:46;;;;;;;;;;;27.40;99.90;;;;;;5035338;28;19909;-74
2023/09/15 12:40:13;;;;;;;;;;;27.50;99.90;;;;;;5034774;28;19920;-73
2023/09/15 12:42:39;;;;;;;;;;;27.50;99.90;;;;;;5035948;28;19913;-77
2023/09/15 12:45:05;;;;;;;;;;;27.50;99.90;;;;;;5034289;28;20265;-76
2023/09/15 12:47:31;;;;;;;;;;;27.50;99.90;;;;;;5035991;28;20349;-75
2023/09/15 12:49:57;;;;;;;;;;;27.40;99.90;;;;;;5035703;28;19955;-76
2023/09/15 12:52:22;;;;;;;;;;;27.50;99.90;;;;;;5035598;28;19913;-77
2023/09/15 12:54:49;;;;;;;;;;;27.60;99.90;;;;;;5036035;28;19909;-75
2023/09/15 12:57:15;;;;;;;;;;;27.60;99.90;;;;;;5034328;28;20361;-74
2023/09/15 12:59:40;;;;;;;;;;;27.60;99.90;;;;;;5034562;28;19928;-75
2023/09/15 13:02:06;;;;;;;;;;;27.60;99.90;;;;;;5035427;28;19942;-76
2023/09/15 13:04:32;;;;;;;;;;;27.60;99.90;;;;;;5035176;28;20121;-75
2023/09/15 13:06:57;;;;;;;;;;;27.80;99.90;;;;;;5035557;28;19995;-75
2023/09/15 13:09:24;;;;;;;;;;;27.70;99.90;;;;;;5035695;28;19932;-75
2023/09/15 13:11:50;;;;;;;;;;;27.70;99.90;;;;;;5035144;28;19908;-75
2023/09/15 13:14:16;;;;;;;;;;;27.70;99.90;;;;;;5032850;28;19928;-76
2023/09/15 13:16:41;;;;;;;;;;;27.70;99.90;;;;;;5030291;28;19921;-76
2023/09/15 13:19:07;;;;;;;;;;;27.60;99.90;;;;;;5050402;28;19905;-76
2023/09/15 13:21:35;;;;;;;;;;;27.50;99.90;;;;;;5030295;28;20019;-73
2023/09/15 13:24:01;;;;;;;;;;;27.50;99.90;;;;;;5033211;28;19905;-77
2023/09/15 13:26:28;;;;;;;;;;;27.50;99.90;;;;;;5032494;28;20297;-75
2023/09/15 13:28:53;;;;;;;;;;;27.60;99.90;;;;;;5031475;28;19909;-74
2023/09/15 13:31:19;;;;;;;;;;;27.70;99.90;;;;;;5035602;28;19909;-77
2023/09/15 13:33:46;;;;;;;;;;;27.60;99.90;;;;;;5034536;28;19915;-75
2023/09/15 13:36:11;;;;;;;;;;;27.70;99.90;;;;;;5050509;28;19917;-74
2023/09/15 13:38:37;;;;;;;;;;;27.70;99.90;;;;;;5034499;28;19905;-76
2023/09/15 13:41:02;;;;;;;;;;;27.50;99.90;;;;;;5035763;28;19920;-76
2023/09/15 13:43:28;;;;;;;;;;;27.50;99.90;;;;;;5034623;28;19909;-74
2023/09/15 13:45:55;;;;;;;;;;;27.40;99.90;;;;;;5035713;28;19905;-77
2023/09/15 13:48:21;;;;;;;;;;;27.50;99.90;;;;;;5032939;28;20008;-76
2023/09/15 13:50:47;;;;;;;;;;;27.50;99.90;;;;;;5048363;28;19960;-75
2023/09/15 13:53:13;;;;;;;;;;;27.60;99.90;;;;;;5033871;28;19909;-75
2023/09/15 13:55:38;;;;;;;;;;;27.50;99.90;;;;;;5035032;28;19952;-75
2023/09/15 13:58:04;;;;;;;;;;;27.60;99.90;;;;;;5034476;28;20381;-74
2023/09/15 14:00:29;;;;;;;;;;;27.70;99.90;;;;;;5030581;28;19913;-76
2023/09/15 14:02:55;;;;;;;;;;;27.70;99.90;;;;;;5032770;28;19920;-75
2023/09/15 14:05:21;;;;;;;;;;;27.70;99.90;;;;;;5033809;28;19919;-75
2023/09/15 14:07:49;;;;;;;;;;;27.60;99.90;;;;;;5034776;28;20374;-73
2023/09/15 14:10:15;;;;;;;;;;;27.60;99.90;;;;;;5033567;28;20288;-75